createdAt,value
2019-04-16T00:01:01.114Z,-3.77
2019-04-16T00:03:27.344Z,-3.83
2019-04-16T00:06:13.357Z,-3.84
2019-04-16T00:08:59.349Z,-4.75
2019-04-16T00:11:45.366Z,-3.90
2019-04-16T00:16:59.263Z,-3.99
2019-04-16T00:19:25.524Z,-4.00
2019-04-16T00:37:36.315Z,-4.27
2019-04-16T00:43:16.118Z,-4.36
2019-04-16T00:45:42.356Z,-4.39
2019-04-16T00:48:08.650Z,-4.40
2019-04-16T00:50:34.904Z,-4.39
2019-04-16T00:53:01.133Z,-4.40
2019-04-16T00:55:27.390Z,-4.39
2019-04-16T00:57:53.617Z,-4.40
2019-04-16T01:00:19.862Z,-4.39
2019-04-16T01:02:47.033Z,-4.40
2019-04-16T01:07:48.914Z,-4.41
2019-04-16T01:10:15.189Z,-4.42
2019-04-16T01:12:41.515Z,-4.43
2019-04-16T01:15:07.923Z,-4.47
2019-04-16T01:17:36.021Z,-4.49
2019-04-16T01:20:23.874Z,-4.50
2019-04-16T01:22:51.091Z,-4.52
2019-04-16T01:25:17.342Z,-4.52
2019-04-16T01:28:23.083Z,-4.54
2019-04-16T01:31:09.103Z,-4.59
2019-04-16T01:36:42.718Z,-4.68
2019-04-16T01:41:56.768Z,-4.71
2019-04-16T01:44:22.998Z,-4.76
2019-04-16T01:46:49.256Z,-4.84
2019-04-16T01:49:15.494Z,-4.87
2019-04-16T01:51:44.655Z,-4.89
2019-04-16T01:54:09.898Z,-4.91
2019-04-16T01:56:36.149Z,-4.89
2019-04-16T01:59:05.521Z,-4.86
2019-04-16T02:01:30.590Z,-4.91
2019-04-16T02:03:56.840Z,-4.95
2019-04-16T02:06:25.612Z,-5.00
2019-04-16T02:11:19.285Z,-5.05
2019-04-16T02:13:46.805Z,-5.04
2019-04-16T02:16:13.720Z,-5.03
2019-04-16T02:18:39.956Z,-5.04
2019-04-16T02:21:09.618Z,-5.03
2019-04-16T02:23:34.369Z,-5.05
2019-04-16T02:26:00.615Z,-5.05
2019-04-16T02:28:28.250Z,-5.08
2019-04-16T02:30:55.116Z,-5.08
2019-04-16T02:33:21.379Z,-5.06
2019-04-16T02:35:47.600Z,-5.02
2019-04-16T02:38:14.386Z,-5.02
2019-04-16T02:40:42.039Z,-5.04
2019-04-16T02:43:08.475Z,-5.09
2019-04-16T02:45:34.698Z,-5.12
2019-04-16T02:48:01.069Z,-5.18
2019-04-16T02:50:47.032Z,-5.22
2019-04-16T02:53:33.039Z,-5.24
2019-04-16T03:01:40.696Z,-5.30
2019-04-16T03:06:40.976Z,-5.30
2019-04-16T03:09:09.173Z,-5.32
2019-04-16T03:11:35.357Z,-6.75
2019-04-16T03:14:01.641Z,-5.32
2019-04-16T03:16:47.636Z,-5.31
2019-04-16T03:22:02.869Z,-5.32
2019-04-16T03:24:29.847Z,-5.33
2019-04-16T03:26:56.091Z,-5.34
2019-04-16T03:29:22.318Z,-5.30
2019-04-16T03:31:48.570Z,-5.30
2019-04-16T03:34:14.994Z,-5.29
2019-04-16T03:36:41.203Z,-5.27
2019-04-16T03:39:12.020Z,-5.23
2019-04-16T03:41:35.651Z,-5.19
2019-04-16T03:44:04.218Z,-5.19
2019-04-16T03:46:30.038Z,-5.19
2019-04-16T03:48:56.486Z,-5.19
2019-04-16T03:51:24.452Z,-5.18
2019-04-16T03:53:50.714Z,-5.15
2019-04-16T03:56:17.139Z,-5.12
2019-04-16T03:58:43.413Z,-5.08
2019-04-16T04:01:09.661Z,-5.04
2019-04-16T04:03:35.928Z,-4.97
2019-04-16T04:06:03.483Z,-4.91
2019-04-16T04:08:30.517Z,-4.87
2019-04-16T04:10:56.757Z,-4.85
2019-04-16T04:13:23.135Z,-4.84
2019-04-16T04:15:49.382Z,-4.79
2019-04-16T04:18:15.635Z,-4.74
2019-04-16T04:20:41.894Z,-4.67
2019-04-16T04:23:08.138Z,-4.61
2019-04-16T04:25:36.249Z,-4.54
2019-04-16T04:28:02.637Z,-4.46
2019-04-16T04:30:29.635Z,-4.39
2019-04-16T04:32:57.050Z,-4.30
2019-04-16T04:35:23.277Z,-4.19
2019-04-16T04:37:49.545Z,-4.07
2019-04-16T04:40:17.410Z,-3.96
2019-04-16T04:42:43.963Z,-3.83
2019-04-16T04:45:10.610Z,-3.66
2019-04-16T04:47:38.394Z,-3.45
2019-04-16T04:50:26.195Z,-3.21
2019-04-16T04:52:52.430Z,-2.88
2019-04-16T04:55:18.680Z,-2.37
2019-04-16T04:57:44.929Z,-1.88
2019-04-16T05:08:13.294Z,0.24
2019-04-16T05:10:42.823Z,0.77
2019-04-16T05:13:08.020Z,1.28
2019-04-16T05:18:28.316Z,2.02
2019-04-16T05:20:54.568Z,2.36
2019-04-16T05:23:24.898Z,2.86
2019-04-16T05:25:48.992Z,3.29
2019-04-16T05:28:15.238Z,3.63
2019-04-16T05:30:41.487Z,3.90
2019-04-16T05:33:07.728Z,4.23
2019-04-16T05:35:34.012Z,4.41
2019-04-16T05:38:00.342Z,4.51
2019-04-16T05:40:28.056Z,4.66
2019-04-16T05:42:58.293Z,5.02
2019-04-16T05:45:22.975Z,5.38
2019-04-16T05:47:49.748Z,5.65
2019-04-16T05:50:17.437Z,5.77
2019-04-16T05:52:43.674Z,6.05
2019-04-16T05:55:29.676Z,6.26
2019-04-16T06:01:12.604Z,6.99
2019-04-16T06:03:38.448Z,7.40
2019-04-16T06:06:04.723Z,7.50
2019-04-16T06:08:30.969Z,7.88
2019-04-16T06:10:57.725Z,8.39
2019-04-16T06:13:45.357Z,8.65
2019-04-16T06:19:26.750Z,8.85
2019-04-16T06:22:12.777Z,9.22
2019-04-16T06:24:58.799Z,9.66
2019-04-16T06:30:33.822Z,9.84
2019-04-16T06:36:07.909Z,10.01
2019-04-16T06:46:49.566Z,10.66
2019-04-16T06:49:35.595Z,11.14
2019-04-16T06:55:09.322Z,12.37
2019-04-16T07:00:43.932Z,12.80
2019-04-16T07:03:32.400Z,12.72
2019-04-16T07:06:17.897Z,12.98
2019-04-16T07:16:40.625Z,13.99
2019-04-16T07:19:10.295Z,14.27
2019-04-16T07:22:20.711Z,14.51
2019-04-16T07:25:00.824Z,14.48
2019-04-16T07:35:42.289Z,15.56
2019-04-16T07:38:28.305Z,15.82
2019-04-16T07:41:16.924Z,15.89
2019-04-16T07:44:08.061Z,16.15
2019-04-16T07:52:26.691Z,16.24
2019-04-16T07:55:12.732Z,16.47
2019-04-16T07:57:39.009Z,16.41
2019-04-16T08:00:25.296Z,16.46
2019-04-16T08:05:27.883Z,16.97
2019-04-16T08:07:54.164Z,16.71
2019-04-16T08:10:20.420Z,16.63
2019-04-16T08:15:44.356Z,17.21
2019-04-16T08:18:10.917Z,17.02
2019-04-16T08:21:01.661Z,16.89
2019-04-16T08:23:44.919Z,16.80
2019-04-16T08:26:31.012Z,16.98
2019-04-16T08:32:06.882Z,17.32
2019-04-16T08:37:50.495Z,17.21
2019-04-16T08:40:38.055Z,17.36
2019-04-16T08:46:28.976Z,16.93
2019-04-16T09:03:07.680Z,17.26
2019-04-16T09:05:33.968Z,17.44
2019-04-16T09:16:22.167Z,17.80
2019-04-16T09:21:36.042Z,17.98
2019-04-16T09:37:38.165Z,18.24
2019-04-16T09:46:52.013Z,18.03
2019-04-16T09:52:03.813Z,17.69
2019-04-16T11:09:38.884Z,18.56
2019-04-16T12:07:58.476Z,17.98
2019-04-16T12:11:00.380Z,17.60
2019-04-16T12:44:45.726Z,16.79
2019-04-16T13:02:38.593Z,16.72
2019-04-16T13:55:09.875Z,13.71
2019-04-16T14:25:58.584Z,13.57
2019-04-16T14:51:16.950Z,11.66
2019-04-16T14:54:03.562Z,11.49
2019-04-16T14:56:48.242Z,11.39
2019-04-16T14:59:35.597Z,11.26
2019-04-16T15:02:43.298Z,11.11
2019-04-16T15:05:29.420Z,10.94
2019-04-16T15:08:16.495Z,10.84
2019-04-16T15:11:02.583Z,10.75
2019-04-16T15:13:48.925Z,10.72
2019-04-16T15:16:50.812Z,10.55
2019-04-16T15:19:49.510Z,10.45
2019-04-16T15:25:26.169Z,10.17
2019-04-16T15:31:13.114Z,9.97
2019-04-16T15:48:21.849Z,9.23
2019-04-16T15:54:11.248Z,9.07
2019-04-16T15:56:57.322Z,9.02
2019-04-16T16:02:17.553Z,8.86
2019-04-16T16:18:05.948Z,8.36
2019-04-16T16:20:32.193Z,8.32
2019-04-16T16:22:59.472Z,8.27
2019-04-16T16:29:02.821Z,8.06
2019-04-16T16:37:55.348Z,7.73
2019-04-16T16:40:36.639Z,7.61
2019-04-16T16:51:23.407Z,7.46
2019-04-16T16:54:34.614Z,7.37
2019-04-16T17:00:25.026Z,7.10
2019-04-16T17:12:10.007Z,6.69
2019-04-16T17:27:00.801Z,6.32
2019-04-16T17:29:46.672Z,6.18
2019-04-16T17:57:49.513Z,4.88
2019-04-16T18:00:57.170Z,4.73
2019-04-16T18:09:17.044Z,4.32
2019-04-16T18:21:05.865Z,3.81
2019-04-16T18:26:48.743Z,3.65
2019-04-16T18:40:49.542Z,2.96
2019-04-16T18:43:46.226Z,2.86
2019-04-16T18:49:47.066Z,2.65
2019-04-16T18:52:36.581Z,2.53
2019-04-16T18:55:16.685Z,2.47
2019-04-16T19:14:39.628Z,1.67
2019-04-16T19:17:06.366Z,1.49
2019-04-16T19:19:32.655Z,1.29
2019-04-16T19:28:12.476Z,0.84
2019-04-16T19:39:57.931Z,0.34
2019-04-16T19:42:44.276Z,0.29
2019-04-16T19:45:12.703Z,0.23
2019-04-16T19:47:39.963Z,0.23
2019-04-16T19:50:06.231Z,0.16
2019-04-16T19:52:32.617Z,0.09
2019-04-16T19:55:20.882Z,0.05
2019-04-16T19:57:47.214Z,0.02
2019-04-16T20:00:35.063Z,-0.09
2019-04-16T20:05:48.949Z,-0.22
2019-04-16T20:08:15.782Z,-0.35
2019-04-16T20:10:42.062Z,-0.46
2019-04-16T20:13:08.442Z,-0.56
2019-04-16T20:21:06.493Z,-0.75
2019-04-16T20:23:32.856Z,-0.83
2019-04-16T20:26:18.951Z,-0.92
2019-04-16T20:28:48.008Z,-0.98
2019-04-16T20:31:13.416Z,-1.10
2019-04-16T20:33:40.632Z,-1.17
2019-04-16T20:36:07.836Z,-1.20
2019-04-16T20:38:34.182Z,-1.18
2019-04-16T20:41:40.320Z,-1.18
2019-04-16T20:44:09.552Z,-1.18
2019-04-16T20:46:37.300Z,-1.35
2019-04-16T20:52:22.547Z,-1.43
2019-04-16T20:57:59.232Z,-1.41
2019-04-16T21:03:20.816Z,-1.44
2019-04-16T21:05:35.792Z,-1.48
2019-04-16T21:08:01.878Z,-1.52
2019-04-16T21:13:16.862Z,-1.63
2019-04-16T21:15:43.206Z,-1.75
2019-04-16T21:18:11.891Z,-1.85
2019-04-16T21:20:37.620Z,-1.94
2019-04-16T21:23:04.222Z,-1.99
2019-04-16T21:25:30.459Z,-2.02
2019-04-16T21:28:36.226Z,-2.02
2019-04-16T21:31:22.247Z,-2.04
2019-04-16T21:36:42.234Z,-2.06
2019-04-16T21:42:00.913Z,-2.08
2019-04-16T21:44:24.283Z,-2.16
2019-04-16T21:46:52.374Z,-2.17
2019-04-16T21:49:18.890Z,-2.17
2019-04-16T21:54:40.135Z,-2.24
2019-04-16T21:59:58.238Z,-2.34
2019-04-16T22:05:48.076Z,-2.35
2019-04-16T22:08:12.046Z,-2.35
2019-04-16T22:10:38.334Z,-2.36
2019-04-16T22:15:38.554Z,-2.39
2019-04-16T22:18:07.970Z,-2.46
2019-04-16T22:20:35.624Z,-2.51
2019-04-16T22:23:01.579Z,-2.51
2019-04-16T22:25:27.857Z,-3.13
2019-04-16T22:27:54.202Z,-2.71
2019-04-16T22:30:20.462Z,-2.72
2019-04-16T22:32:46.954Z,-2.80
2019-04-16T22:35:14.138Z,-2.91
2019-04-16T22:37:40.761Z,-2.91
2019-04-16T22:40:48.517Z,-2.87
2019-04-16T22:43:34.583Z,-2.84
2019-04-16T22:46:20.992Z,-2.81
2019-04-16T22:49:07.007Z,-2.83
2019-04-16T22:51:33.445Z,-2.89
2019-04-16T23:04:43.752Z,-3.03
2019-04-16T23:07:10.122Z,-3.01
2019-04-16T23:09:36.388Z,-3.08
2019-04-16T23:12:02.729Z,-3.20
2019-04-16T23:14:31.643Z,-3.28
2019-04-16T23:19:32.403Z,-3.24
2019-04-16T23:21:59.149Z,-3.25
2019-04-16T23:30:40.075Z,-3.32
2019-04-16T23:33:06.363Z,-3.37
2019-04-16T23:35:32.937Z,-3.42
2019-04-16T23:38:01.117Z,-3.45
2019-04-16T23:40:28.925Z,-3.48
2019-04-16T23:43:14.924Z,-3.53
2019-04-16T23:46:01.378Z,-3.54
2019-04-16T23:48:48.902Z,-3.58
2019-04-16T23:51:34.924Z,-3.62
2019-04-16T23:54:20.919Z,-3.66
2019-04-16T23:59:41.063Z,-3.62
